39  °F
Temperature
4  °C
Temperature
2  °C
 Dewpoint
36  °F
  Dewpoint
87  %
 Humidity
  Temperature
13  mph
Wind Speed
11  kts
Wind Speed
21  km/h
Wind Speed
5.8  m/s
Wind Speed
290°
West North
West

Wind Speed
Overcast
Conditions
Pressure 29.99 (inHG) - 1015.62 (mb)
Visibility 9.9 (mi) - 16.0 (km)

Sky Conditions
KPCW
Location Carl R Keller Field 5 mi (8.05 km)
Metar :KPCW 271415Z AUTO 29011KT 10SM OVC011 04/02 A2999 RMK AO2
Sat 27th February 10:15 am

Nearest Airport
https://www.checkwx.com/weather/KPCW
  Metar Aviation API Data Provided by https://www.checkwx.com/ Original CSS/SVG/PHP scripts by weather34.com © 2015-2021